Time;durP1;ratioP1;P1;durP2;ratioP2;P2;SDS_P1;SDS_P2;PMS_P1;PMS_P2;Temp;Humidity;BMP_temperature;BMP_pressure;BME280_temperature;BME280_humidity;BME280_pressure;Samples;Min_cycle;Max_cycle;Signal;HPM_P1;HPM_P2
2023/06/23 00:00:37;;;;;;;15.13;10.77;;;27.10;98.60;;;;;;5135197;27;20381;-70
2023/06/23 00:03:02;;;;;;;19.15;11.02;;;27.10;98.70;;;;;;5134986;27;20047;-69
2023/06/23 00:05:28;;;;;;;17.55;11.63;;;27.10;98.70;;;;;;5134785;27;20059;-69
2023/06/23 00:07:54;;;;;;;16.98;11.48;;;27.10;98.70;;;;;;5134879;27;20023;-70
2023/06/23 00:10:20;;;;;;;19.50;11.20;;;27.10;98.60;;;;;;5134475;27;20420;-69
2023/06/23 00:12:47;;;;;;;15.52;10.35;;;27.10;98.70;;;;;;5134757;27;20031;-69
2023/06/23 00:15:14;;;;;;;18.67;11.50;;;27.10;98.60;;;;;;5134321;27;20027;-69
2023/06/23 00:17:43;;;;;;;24.92;10.98;;;27.10;98.60;;;;;;5134975;27;20042;-69
2023/06/23 00:20:13;;;;;;;18.08;11.55;;;27.10;98.60;;;;;;5134201;27;20034;-69
2023/06/23 00:22:40;;;;;;;22.92;11.90;;;27.10;98.60;;;;;;5134480;27;20484;-69
2023/06/23 00:25:10;;;;;;;17.85;11.50;;;27.10;98.60;;;;;;5134461;27;20027;-69
2023/06/23 00:27:40;;;;;;;22.25;11.18;;;27.10;98.80;;;;;;5134538;27;20114;-69
2023/06/23 00:30:11;;;;;;;18.87;11.20;;;27.10;98.80;;;;;;5134402;27;20035;-68
2023/06/23 00:32:38;;;;;;;18.58;11.02;;;27.10;98.70;;;;;;5134528;27;20106;-69
2023/06/23 00:35:04;;;;;;;18.33;10.75;;;27.10;98.80;;;;;;5130949;27;20034;-69
2023/06/23 00:37:32;;;;;;;13.63;11.35;;;27.10;98.70;;;;;;5133896;27;20019;-69
2023/06/23 00:40:08;;;;;;;18.55;11.45;;;27.00;98.80;;;;;;5130724;27;20035;-69
2023/06/23 00:42:53;;;;;;;15.13;11.85;;;27.00;98.80;;;;;;5112948;27;20071;-68
2023/06/23 00:45:24;;;;;;;19.05;11.77;;;27.00;98.90;;;;;;5130154;27;20039;-71
2023/06/23 00:48:08;;;;;;;18.83;11.88;;;27.00;99.10;;;;;;5134264;27;20140;-70
2023/06/23 00:50:38;;;;;;;18.35;12.38;;;27.00;99.20;;;;;;5133856;27;20031;-70
2023/06/23 00:53:08;;;;;;;22.42;11.88;;;27.00;99.30;;;;;;5095743;27;20039;-70
2023/06/23 00:55:40;;;;;;;21.70;12.25;;;26.90;99.50;;;;;;5131909;27;20035;-70
2023/06/23 00:58:11;;;;;;;20.35;11.38;;;26.90;99.70;;;;;;5133844;27;20055;-70
2023/06/23 01:00:42;;;;;;;20.17;11.82;;;26.90;99.80;;;;;;5133643;27;20031;-71
2023/06/23 01:03:13;;;;;;;19.23;12.23;;;26.90;99.90;;;;;;5132512;27;20038;-71
2023/06/23 01:05:41;;;;;;;23.88;13.00;;;26.80;99.90;;;;;;5133760;27;20023;-70
2023/06/23 01:08:26;;;;;;;16.27;12.25;;;26.80;99.90;;;;;;5115178;27;20471;-70
2023/06/23 01:11:05;;;;;;;22.05;12.15;;;26.70;99.90;;;;;;5133461;27;20069;-70
2023/06/23 01:13:52;;;;;;;17.10;11.25;;;26.70;98.60;;;;;;5133624;27;20072;-71
2023/06/23 01:16:27;;;;;;;22.10;11.38;;;26.70;97.20;;;;;;5133268;27;20076;-70
2023/06/23 01:19:10;;;;;;;16.20;10.10;;;26.80;94.90;;;;;;5133698;28;20023;-70
2023/06/23 01:22:06;;;;;;;20.65;11.00;;;26.80;95.10;;;;;;5132079;28;20036;-70
2023/06/23 01:24:55;;;;;;;17.70;9.73;;;26.80;94.80;;;;;;5133864;28;20035;-70
2023/06/23 01:27:53;;;;;;;18.25;10.68;;;26.80;94.70;;;;;;5132883;28;20467;-70
2023/06/23 01:30:28;;;;;;;17.88;9.65;;;26.80;94.10;;;;;;5133071;28;20039;-70
2023/06/23 01:33:16;;;;;;;16.10;9.18;;;26.80;93.90;;;;;;5133600;28;20068;-70
2023/06/23 01:35:53;;;;;;;21.88;9.52;;;26.70;93.30;;;;;;5117230;28;20161;-70
2023/06/23 01:38:29;;;;;;;12.77;8.20;;;26.70;93.30;;;;;;5123264;28;20498;-69
2023/06/23 01:41:04;;;;;;;15.20;7.57;;;26.60;92.80;;;;;;5133225;28;20491;-69
2023/06/23 01:43:37;;;;;;;14.02;7.50;;;26.60;91.80;;;;;;5132893;28;20379;-69
2023/06/23 01:46:12;;;;;;;16.27;8.10;;;26.60;91.00;;;;;;5132556;28;20039;-69
2023/06/23 01:48:47;;;;;;;24.10;7.03;;;26.60;90.70;;;;;;5132053;28;20502;-69
2023/06/23 01:51:17;;;;;;;18.45;6.68;;;26.50;88.00;;;;;;5131067;28;20027;-77
2023/06/23 01:53:51;;;;;;;17.45;6.45;;;26.50;87.30;;;;;;5110566;28;20039;-69
2023/06/23 01:56:20;;;;;;;15.27;5.80;;;26.50;85.70;;;;;;5113435;28;20020;-69
2023/06/23 01:58:50;;;;;;;17.42;6.40;;;26.50;84.50;;;;;;5128616;27;20291;-69
2023/06/23 02:01:23;;;;;;;18.00;6.10;;;26.40;83.80;;;;;;5119121;27;20032;-69
2023/06/23 02:03:54;;;;;;;20.08;5.70;;;26.40;83.30;;;;;;5136097;27;20395;-69
2023/06/23 02:06:33;;;;;;;15.57;5.75;;;26.40;82.00;;;;;;5136559;27;20439;-70
2023/06/23 02:09:10;;;;;;;10.63;4.63;;;26.40;81.00;;;;;;5117941;27;20047;-69
2023/06/23 02:11:39;;;;;;;19.98;5.53;;;26.30;80.20;;;;;;5135314;27;20031;-69
2023/06/23 02:14:07;;;;;;;18.27;4.93;;;26.30;79.60;;;;;;5136742;27;20076;-69
2023/06/23 02:16:49;;;;;;;12.52;5.05;;;26.30;79.40;;;;;;5136149;27;20023;-69
2023/06/23 02:19:20;;;;;;;24.35;5.30;;;26.20;79.00;;;;;;5118122;27;20482;-71
2023/06/23 02:21:47;;;;;;;24.00;5.50;;;26.20;79.20;;;;;;5102039;27;20062;-69
2023/06/23 02:24:17;;;;;;;15.52;4.93;;;26.20;79.50;;;;;;5117359;27;20038;-70
2023/06/23 02:26:47;;;;;;;16.00;5.28;;;26.10;79.60;;;;;;5118509;27;20172;-69
2023/06/23 02:29:20;;;;;;;15.00;5.73;;;26.10;80.10;;;;;;5136623;27;20027;-69
2023/06/23 02:31:47;;;;;;;19.80;4.88;;;26.10;80.80;;;;;;5117223;27;20761;-69
2023/06/23 02:34:14;;;;;;;19.10;5.95;;;26.00;81.10;;;;;;5136529;27;20108;-69
2023/06/23 02:36:50;;;;;;;20.10;5.28;;;26.00;81.70;;;;;;5129901;27;20063;-69
2023/06/23 02:39:24;;;;;;;17.63;5.00;;;25.90;82.20;;;;;;5117731;27;20031;-75
2023/06/23 02:41:59;;;;;;;15.18;5.28;;;25.80;82.70;;;;;;5119231;27;20156;-69
2023/06/23 02:45:03;;;;;;;18.58;5.53;;;25.80;83.00;;;;;;5125251;27;20024;-69
2023/06/23 02:47:36;;;;;;;19.05;5.35;;;25.80;83.20;;;;;;5116635;28;20039;-69
2023/06/23 02:50:11;;;;;;;12.00;5.25;;;25.80;83.70;;;;;;5116856;28;20395;-69
2023/06/23 02:52:47;;;;;;;16.08;4.97;;;25.70;83.80;;;;;;5080341;28;20416;-69
2023/06/23 02:55:22;;;;;;;15.27;4.85;;;25.60;84.00;;;;;;5115580;28;20031;-69
2023/06/23 02:57:58;;;;;;;13.85;4.85;;;25.50;84.10;;;;;;5098028;28;20105;-69
2023/06/23 03:00:46;;;;;;;8.82;4.65;;;25.50;84.20;;;;;;5113674;28;20051;-69
2023/06/23 03:03:24;;;;;;;14.73;5.05;;;25.50;84.20;;;;;;5098442;28;20023;-68
2023/06/23 03:05:57;;;;;;;12.35;4.55;;;25.40;84.10;;;;;;5079091;28;20404;-69
2023/06/23 03:08:27;;;;;;;17.98;4.93;;;25.40;84.10;;;;;;5113929;28;20031;-70
2023/06/23 03:10:54;;;;;;;17.05;4.45;;;25.30;84.00;;;;;;5093135;28;20036;-69
2023/06/23 03:13:35;;;;;;;14.02;4.28;;;25.30;83.80;;;;;;5114962;28;20031;-69
2023/06/23 03:16:08;;;;;;;12.82;4.00;;;25.20;83.30;;;;;;5097772;28;20023;-69
2023/06/23 03:18:41;;;;;;;9.63;4.47;;;25.20;83.40;;;;;;5096651;28;20020;-69
2023/06/23 03:21:09;;;;;;;11.45;4.32;;;25.10;83.30;;;;;;5096196;28;20543;-69
2023/06/23 03:23:41;;;;;;;9.90;3.97;;;25.10;83.20;;;;;;5114351;28;20384;-69
2023/06/23 03:26:13;;;;;;;12.90;4.68;;;25.10;83.30;;;;;;5114453;28;20384;-69
2023/06/23 03:29:03;;;;;;;11.23;3.85;;;25.10;83.20;;;;;;5114372;28;20027;-69
2023/06/23 03:31:47;;;;;;;11.90;4.53;;;25.10;83.20;;;;;;5114625;28;20106;-69
2023/06/23 03:34:29;;;;;;;12.32;4.07;;;25.00;83.20;;;;;;5096346;28;20036;-70
2023/06/23 03:37:02;;;;;;;11.68;4.07;;;25.00;83.60;;;;;;5115151;28;20072;-69
2023/06/23 03:39:34;;;;;;;10.02;3.80;;;25.00;83.20;;;;;;5114572;28;20035;-69
2023/06/23 03:42:04;;;;;;;11.05;3.58;;;25.00;83.10;;;;;;5095045;28;20039;-69
2023/06/23 03:44:38;;;;;;;9.82;3.50;;;25.00;83.30;;;;;;5110934;28;20035;-68
2023/06/23 03:47:30;;;;;;;15.25;3.90;;;25.00;83.10;;;;;;5113257;28;20048;-68
2023/06/23 03:50:14;;;;;;;10.40;3.58;;;25.00;83.10;;;;;;5133062;27;20095;-69
2023/06/23 03:52:45;;;;;;;15.48;3.92;;;24.90;83.10;;;;;;5134857;27;20027;-69
2023/06/23 03:55:17;;;;;;;12.88;3.78;;;25.00;83.10;;;;;;5134998;27;20023;-69
2023/06/23 03:58:05;;;;;;;10.88;3.92;;;24.90;82.90;;;;;;5134486;27;20027;-69
2023/06/23 04:00:46;;;;;;;8.73;3.75;;;24.90;83.00;;;;;;5114542;27;20078;-69
2023/06/23 04:03:30;;;;;;;9.85;3.63;;;24.90;83.10;;;;;;5114069;28;20027;-69
2023/06/23 04:06:07;;;;;;;12.75;3.97;;;24.90;83.60;;;;;;5096671;28;20039;-68
2023/06/23 04:08:46;;;;;;;9.15;3.58;;;24.90;83.60;;;;;;5112917;28;20456;-68
2023/06/23 04:11:15;;;;;;;9.70;3.17;;;24.90;83.80;;;;;;5113985;28;20077;-68
2023/06/23 04:14:04;;;;;;;10.23;3.40;;;24.90;83.80;;;;;;5095267;28;20131;-68
2023/06/23 04:16:37;;;;;;;10.13;3.35;;;24.90;83.70;;;;;;5113457;28;20023;-69
2023/06/23 04:19:14;;;;;;;9.85;3.72;;;24.90;84.30;;;;;;5092631;28;20482;-69
2023/06/23 04:21:41;;;;;;;12.15;3.58;;;24.90;83.80;;;;;;5095529;28;20372;-69
2023/06/23 04:24:14;;;;;;;11.52;3.25;;;24.90;83.60;;;;;;5114100;28;20035;-69
2023/06/23 04:26:52;;;;;;;16.65;3.75;;;24.90;83.80;;;;;;5095776;28;20092;-69
2023/06/23 04:29:35;;;;;;;9.88;3.50;;;24.90;83.80;;;;;;5113224;28;20078;-69
2023/06/23 04:32:06;;;;;;;10.55;3.60;;;24.90;83.80;;;;;;5098509;28;20044;-70
2023/06/23 04:34:38;;;;;;;7.18;3.70;;;24.80;84.00;;;;;;5113818;27;20035;-69
2023/06/23 04:37:48;;;;;;;5.80;3.50;;;24.80;84.20;;;;;;5113899;28;20076;-69
2023/06/23 04:40:44;;;;;;;8.60;3.55;;;24.80;84.30;;;;;;5113517;28;20063;-69
2023/06/23 04:43:40;;;;;;;14.88;3.63;;;24.90;84.50;;;;;;5096341;28;20019;-69
2023/06/23 04:46:31;;;;;;;12.02;3.70;;;24.90;84.20;;;;;;5107563;28;20150;-68
2023/06/23 04:49:11;;;;;;;9.20;3.72;;;24.90;83.90;;;;;;5110214;28;20498;-69
2023/06/23 04:51:56;;;;;;;12.25;3.35;;;25.00;83.70;;;;;;5111537;28;20047;-69
2023/06/23 04:54:39;;;;;;;9.32;3.25;;;25.10;83.40;;;;;;5110455;28;20050;-70
2023/06/23 04:57:19;;;;;;;9.77;3.33;;;25.10;83.50;;;;;;5096026;28;20031;-70
2023/06/23 04:59:52;;;;;;;9.40;3.58;;;25.20;82.70;;;;;;5112687;28;20038;-69
2023/06/23 05:02:34;;;;;;;14.70;3.50;;;25.30;82.00;;;;;;5092570;28;20047;-69
2023/06/23 05:05:27;;;;;;;8.30;3.97;;;25.30;81.80;;;;;;5112323;28;20136;-69
2023/06/23 05:08:09;;;;;;;9.48;3.15;;;25.50;81.40;;;;;;5112683;28;20388;-69
2023/06/23 05:10:51;;;;;;;16.30;4.13;;;25.70;80.30;;;;;;5112611;28;20111;-69
2023/06/23 05:13:28;;;;;;;10.43;3.50;;;25.80;79.60;;;;;;5111350;28;20034;-69
2023/06/23 05:15:59;;;;;;;14.68;3.17;;;26.10;79.30;;;;;;5101368;28;20040;-69
2023/06/23 05:18:34;;;;;;;10.87;3.50;;;26.10;78.60;;;;;;5112760;28;20563;-70
2023/06/23 05:21:17;;;;;;;10.45;3.22;;;26.30;78.60;;;;;;5092219;28;20067;-69
2023/06/23 05:24:00;;;;;;;14.30;3.50;;;26.40;77.70;;;;;;5094935;28;20036;-69
2023/06/23 05:26:38;;;;;;;9.70;3.50;;;26.50;77.20;;;;;;5096027;28;20027;-69
2023/06/23 05:29:13;;;;;;;7.90;3.47;;;26.40;77.30;;;;;;5094187;28;20542;-70
2023/06/23 05:31:42;;;;;;;15.23;3.90;;;26.30;77.30;;;;;;5078763;28;20031;-70
2023/06/23 05:34:23;;;;;;;14.38;3.58;;;26.20;77.50;;;;;;5117301;28;20107;-69
2023/06/23 05:36:57;;;;;;;9.55;3.45;;;26.10;77.90;;;;;;5094029;28;20082;-70
2023/06/23 05:39:38;;;;;;;11.98;3.63;;;26.10;78.40;;;;;;5093392;28;20035;-70
2023/06/23 05:42:09;;;;;;;9.63;3.78;;;26.10;78.80;;;;;;5084040;28;20146;-70
2023/06/23 05:45:10;;;;;;;10.23;3.65;;;25.90;79.00;;;;;;5116751;28;20043;-69
2023/06/23 05:47:59;;;;;;;6.68;3.30;;;25.70;80.20;;;;;;5095643;28;20105;-70
2023/06/23 05:50:41;;;;;;;13.20;3.35;;;25.60;80.00;;;;;;5116592;28;20088;-70
2023/06/23 05:53:30;;;;;;;10.50;3.17;;;25.60;80.50;;;;;;5116880;28;20015;-71
2023/06/23 05:56:17;;;;;;;7.90;3.47;;;25.50;80.10;;;;;;5101419;27;20084;-70
2023/06/23 05:59:42;;;;;;;9.43;3.13;;;25.50;80.50;;;;;;5112825;28;20039;-70
2023/06/23 06:02:31;;;;;;;10.98;3.05;;;25.50;80.20;;;;;;5121897;27;20056;-70
2023/06/23 06:05:05;;;;;;;8.60;3.28;;;25.60;79.20;;;;;;5113623;27;20116;-69
2023/06/23 06:07:36;;;;;;;8.38;3.25;;;25.70;79.50;;;;;;5101308;27;20041;-78
2023/06/23 06:10:26;;;;;;;9.35;2.80;;;25.90;78.40;;;;;;5101323;27;20495;-70
2023/06/23 06:13:01;;;;;;;6.97;3.13;;;26.20;77.60;;;;;;5121231;27;20068;-70
2023/06/23 06:15:37;;;;;;;10.88;3.35;;;26.40;76.30;;;;;;5132124;27;20031;-69
2023/06/23 06:18:25;;;;;;;6.78;3.20;;;26.50;76.40;;;;;;5118481;27;20027;-70
2023/06/23 06:21:05;;;;;;;13.02;3.67;;;26.70;75.60;;;;;;5136374;27;20031;-70
2023/06/23 06:23:36;;;;;;;10.43;3.53;;;26.80;75.30;;;;;;5101695;27;20137;-69
2023/06/23 06:26:56;;;;;;;13.73;3.50;;;26.90;75.40;;;;;;5096750;27;20038;-69
2023/06/23 06:29:39;;;;;;;10.10;2.90;;;27.10;74.00;;;;;;5135025;27;20045;-71
2023/06/23 06:32:37;;;;;;;9.60;3.45;;;27.30;73.90;;;;;;5119183;27;20487;-69
2023/06/23 06:35:26;;;;;;;8.95;3.30;;;27.50;72.90;;;;;;5135156;27;20039;-69
2023/06/23 06:38:34;;;;;;;7.00;3.13;;;27.90;71.10;;;;;;5135319;27;20035;-70
2023/06/23 06:41:36;;;;;;;10.90;3.33;;;28.20;70.30;;;;;;5136047;27;20049;-70
2023/06/23 06:44:35;;;;;;;8.60;3.30;;;28.60;69.20;;;;;;5135962;27;20471;-70
2023/06/23 06:47:31;;;;;;;6.93;2.80;;;28.90;67.60;;;;;;5136237;27;20388;-70
2023/06/23 06:50:05;;;;;;;12.48;3.38;;;28.70;67.00;;;;;;5134591;27;20038;-70
2023/06/23 06:53:10;;;;;;;7.87;3.00;;;29.00;66.60;;;;;;5103416;27;20517;-70
2023/06/23 06:55:48;;;;;;;13.10;2.90;;;29.20;66.20;;;;;;5116422;27;20295;-69
2023/06/23 06:58:42;;;;;;;12.18;2.70;;;29.20;65.00;;;;;;5135389;27;20023;-69
2023/06/23 07:01:32;;;;;;;7.57;2.67;;;29.00;64.10;;;;;;5131039;27;20112;-69
2023/06/23 07:04:19;;;;;;;4.63;2.17;;;28.70;64.80;;;;;;5135306;27;20035;-69
2023/06/23 07:07:10;;;;;;;8.18;2.50;;;28.90;63.50;;;;;;5116956;27;20468;-70
2023/06/23 07:09:45;;;;;;;7.75;3.08;;;28.70;62.20;;;;;;5135188;27;20083;-69
2023/06/23 07:12:12;;;;;;;9.85;2.63;;;28.80;63.10;;;;;;5116213;27;20023;-68
2023/06/23 07:14:53;;;;;;;6.10;2.20;;;28.90;61.80;;;;;;5135409;27;20019;-68
2023/06/23 07:17:26;;;;;;;9.52;2.35;;;28.90;62.40;;;;;;5118137;27;20039;-69
2023/06/23 07:20:02;;;;;;;8.70;2.05;;;29.20;61.30;;;;;;5098235;27;20124;-69
2023/06/23 07:22:36;;;;;;;9.73;2.50;;;29.00;61.10;;;;;;5135143;27;20471;-69
2023/06/23 07:25:08;;;;;;;6.35;1.88;;;29.10;60.50;;;;;;5135206;27;20024;-69
2023/06/23 07:27:53;;;;;;;8.65;2.10;;;29.30;59.80;;;;;;5133455;27;20114;-70
2023/06/23 07:30:31;;;;;;;4.50;2.25;;;29.80;58.20;;;;;;5135331;27;20396;-69
2023/06/23 07:33:11;;;;;;;7.10;2.33;;;29.40;57.90;;;;;;5116647;27;20026;-69
2023/06/23 07:35:42;;;;;;;4.47;1.95;;;29.30;58.20;;;;;;5132454;27;20027;-70
2023/06/23 07:38:34;;;;;;;7.32;1.85;;;29.10;58.80;;;;;;5134889;27;20475;-69
2023/06/23 07:41:23;;;;;;;5.20;1.88;;;28.90;58.70;;;;;;5122690;27;20088;-69
2023/06/23 07:44:09;;;;;;;8.27;2.03;;;28.70;59.50;;;;;;5116164;27;20071;-69
2023/06/23 07:46:47;;;;;;;11.20;2.05;;;28.70;59.80;;;;;;5114597;27;20100;-68
2023/06/23 07:49:27;;;;;;;9.60;2.15;;;28.70;60.00;;;;;;5134612;27;20039;-69
2023/06/23 07:52:04;;;;;;;8.65;2.30;;;28.70;60.70;;;;;;5115749;27;20023;-69
2023/06/23 07:54:45;;;;;;;6.50;2.08;;;28.90;59.10;;;;;;5134581;27;20059;-69
2023/06/23 07:57:21;;;;;;;6.45;2.00;;;28.60;59.20;;;;;;5134806;27;20020;-69
2023/06/23 08:00:07;;;;;;;4.60;1.60;;;28.30;59.10;;;;;;5133418;27;20031;-70
2023/06/23 08:02:46;;;;;;;9.95;2.53;;;28.20;60.10;;;;;;5125349;27;20046;-69
2023/06/23 08:05:16;;;;;;;10.23;2.25;;;28.10;60.90;;;;;;5118311;27;20485;-69
2023/06/23 08:07:46;;;;;;;5.32;2.08;;;28.10;60.40;;;;;;5131867;27;20169;-70
2023/06/23 08:10:21;;;;;;;10.90;2.63;;;28.00;60.50;;;;;;5115747;27;20035;-69
2023/06/23 08:12:57;;;;;;;8.90;2.17;;;27.90;61.50;;;;;;5133764;27;20034;-70
2023/06/23 08:15:53;;;;;;;5.88;2.10;;;27.70;61.60;;;;;;5116855;27;20039;-70
2023/06/23 08:18:39;;;;;;;8.70;1.90;;;27.50;62.30;;;;;;5133186;27;20124;-69
2023/06/23 08:21:26;;;;;;;7.60;2.08;;;27.50;63.40;;;;;;5128814;27;20103;-69
2023/06/23 08:24:00;;;;;;;5.88;1.83;;;27.40;63.10;;;;;;5099194;27;20107;-69
2023/06/23 08:26:32;;;;;;;6.75;2.15;;;27.50;63.40;;;;;;5130087;27;20039;-69
2023/06/23 08:29:04;;;;;;;5.80;1.83;;;27.60;63.60;;;;;;5131365;27;20101;-69
2023/06/23 08:31:35;;;;;;;;;;;27.60;63.50;;;;;;5103321;27;20043;-69
2023/06/23 08:34:30;;;;;;;3.25;1.80;;;27.40;63.30;;;;;;5098849;27;20317;-69
2023/06/23 08:37:03;;;;;;;3.58;1.90;;;27.30;63.90;;;;;;5118184;27;20407;-68
2023/06/23 08:39:41;;;;;;;6.53;2.30;;;27.40;63.90;;;;;;5127976;27;20134;-69
2023/06/23 08:42:08;;;;;;;4.28;2.40;;;27.10;63.70;;;;;;5114523;27;20110;-70
2023/06/23 08:44:48;;;;;;;4.43;1.90;;;27.10;64.70;;;;;;5132790;27;20035;-69
2023/06/23 08:48:06;;;;;;;9.63;2.22;;;26.90;64.80;;;;;;5111495;27;20051;-69
2023/06/23 08:51:01;;;;;;;8.27;1.92;;;26.90;64.60;;;;;;5121931;27;20039;-70
2023/06/23 08:53:44;;;;;;;14.80;2.03;;;26.80;64.80;;;;;;5114819;27;20452;-70
2023/06/23 08:56:24;;;;;;;11.45;2.42;;;26.70;64.00;;;;;;5101779;27;20035;-69
2023/06/23 08:59:12;;;;;;;2.97;1.77;;;26.70;64.70;;;;;;5110308;27;20070;-68
2023/06/23 09:01:46;;;;;;;2.83;1.30;;;26.70;63.60;;;;;;5132359;27;20041;-68
2023/06/23 09:04:34;;;;;;;4.70;1.83;;;26.70;63.70;;;;;;5133276;27;20045;-69
2023/06/23 09:07:02;;;;;;;4.72;1.98;;;26.60;64.10;;;;;;5127649;27;20038;-69
2023/06/23 09:09:35;;;;;;;2.42;1.73;;;26.70;64.10;;;;;;5109369;27;20035;-69
2023/06/23 09:12:13;;;;;;;11.35;2.10;;;26.70;63.90;;;;;;5131898;27;20088;-69
2023/06/23 09:15:09;;;;;;;3.22;1.60;;;26.60;64.70;;;;;;5114230;27;20429;-68
2023/06/23 09:17:51;;;;;;;3.00;1.67;;;26.60;64.10;;;;;;5128564;27;20113;-69
2023/06/23 09:20:44;;;;;;;4.88;1.45;;;26.70;64.20;;;;;;5109862;28;20046;-69
2023/06/23 09:23:25;;;;;;;6.65;2.00;;;26.70;62.60;;;;;;5115385;28;20361;-70
2023/06/23 09:26:14;;;;;;;4.13;1.40;;;26.70;62.90;;;;;;5115129;28;20026;-69
2023/06/23 09:28:48;;;;;;;2.97;1.58;;;26.70;62.60;;;;;;5132267;28;20038;-69
2023/06/23 09:31:32;;;;;;;6.65;1.95;;;26.70;61.70;;;;;;5117133;28;20031;-69
2023/06/23 09:34:06;;;;;;;6.75;1.90;;;26.70;62.40;;;;;;5098649;28;20038;-69
2023/06/23 09:36:42;;;;;;;2.53;1.50;;;26.70;62.70;;;;;;5116165;28;20035;-69
2023/06/23 09:39:18;;;;;;;3.85;1.70;;;26.80;63.00;;;;;;5132687;28;20040;-69
2023/06/23 09:42:00;;;;;;;6.22;1.85;;;27.00;63.50;;;;;;5114867;28;20054;-69
2023/06/23 09:44:42;;;;;;;3.20;1.40;;;27.20;63.10;;;;;;5115931;28;20027;-69
2023/06/23 09:47:18;;;;;;;5.47;1.55;;;27.30;61.60;;;;;;5091996;28;20081;-69
2023/06/23 09:49:47;;;;;;;3.15;1.63;;;27.40;62.30;;;;;;5090703;28;20047;-69
2023/06/23 09:52:27;;;;;;;4.57;1.23;;;27.50;61.10;;;;;;5089420;28;20146;-69
2023/06/23 09:55:00;;;;;;;3.58;1.52;;;27.50;61.30;;;;;;5088373;28;20429;-69
2023/06/23 09:57:39;;;;;;;4.20;1.67;;;27.50;61.40;;;;;;5089687;28;20105;-68
2023/06/23 10:00:10;;;;;;;3.30;1.40;;;27.50;61.60;;;;;;5069804;28;20477;-69
2023/06/23 10:03:05;;;;;;;4.03;1.60;;;27.50;61.90;;;;;;5071346;28;20040;-69
2023/06/23 10:05:40;;;;;;;5.60;1.40;;;27.40;60.90;;;;;;5073805;28;20056;-69
2023/06/23 10:08:15;;;;;;;4.00;1.30;;;27.40;60.30;;;;;;5070618;28;20047;-70
2023/06/23 10:10:47;;;;;;;1.73;1.00;;;27.40;61.00;;;;;;5071617;28;20172;-69
2023/06/23 10:13:19;;;;;;;6.85;1.58;;;27.40;60.80;;;;;;5070750;28;20438;-70
2023/06/23 10:15:46;;;;;;;6.43;1.35;;;27.50;60.90;;;;;;5069367;28;20051;-69
2023/06/23 10:18:24;;;;;;;3.38;1.20;;;27.50;61.00;;;;;;5067285;28;20035;-69
2023/06/23 10:21:19;;;;;;;4.95;1.63;;;27.60;60.90;;;;;;5074102;28;20036;-72
2023/06/23 10:23:54;;;;;;;3.97;1.45;;;27.70;61.60;;;;;;5075543;28;20030;-70
2023/06/23 10:26:37;;;;;;;4.07;1.00;;;27.70;61.60;;;;;;5075322;28;20024;-69
2023/06/23 10:29:28;;;;;;;1.85;1.00;;;27.60;60.70;;;;;;5074669;28;20032;-68
2023/06/23 10:32:00;;;;;;;2.40;1.40;;;27.70;62.00;;;;;;5074976;28;20393;-68
2023/06/23 10:34:36;;;;;;;4.72;1.25;;;27.70;61.20;;;;;;5072485;28;20044;-68
2023/06/23 10:37:14;;;;;;;4.25;1.13;;;27.70;61.80;;;;;;5076787;28;20039;-69
2023/06/23 10:39:59;;;;;;;3.20;1.20;;;27.80;60.60;;;;;;5074840;28;20113;-69
2023/06/23 10:42:35;;;;;;;5.53;1.20;;;27.70;61.00;;;;;;5074775;28;20036;-68
2023/06/23 10:45:03;;;;;;;5.50;1.20;;;27.60;61.10;;;;;;5074726;28;20028;-70
2023/06/23 10:47:29;;;;;;;2.40;1.08;;;27.60;60.80;;;;;;5115631;28;20102;-69
2023/06/23 10:49:56;;;;;;;5.57;1.15;;;27.60;60.50;;;;;;5115271;28;20108;-69
2023/06/23 10:52:22;;;;;;;7.10;1.10;;;27.70;59.60;;;;;;5115541;28;20011;-69
2023/06/23 10:54:49;;;;;;;1.45;1.05;;;27.60;59.70;;;;;;5115402;28;20027;-69
2023/06/23 10:57:15;;;;;;;5.07;1.10;;;27.60;60.20;;;;;;5115238;28;20023;-69
2023/06/23 11:00:00;;;;;;;1.02;0.90;;;27.50;60.20;;;;;;5115246;28;20422;-69
2023/06/23 11:02:26;;;;;;;2.67;1.17;;;27.40;60.60;;;;;;5115129;28;20039;-69
2023/06/23 11:05:03;;;;;;;8.10;1.23;;;27.40;61.40;;;;;;5114945;28;20020;-70
2023/06/23 11:07:28;;;;;;;7.75;1.05;;;27.40;61.00;;;;;;5115016;28;20487;-69
2023/06/23 11:09:54;;;;;;;6.63;1.25;;;27.40;61.10;;;;;;5114569;28;20110;-69
2023/06/23 11:12:37;;;;;;;4.40;1.08;;;27.40;61.60;;;;;;5115252;28;20023;-68
2023/06/23 11:15:25;;;;;;;4.30;0.88;;;27.50;61.40;;;;;;5114768;28;20130;-69
2023/06/23 11:18:01;;;;;;;6.32;0.90;;;27.40;60.70;;;;;;5115129;28;20038;-69
2023/06/23 11:20:32;;;;;;;2.08;0.90;;;27.50;61.40;;;;;;5114796;28;20106;-68
2023/06/23 11:23:05;;;;;;;1.77;0.85;;;27.50;60.60;;;;;;5114535;28;20027;-69
2023/06/23 11:25:31;;;;;;;4.07;1.02;;;27.50;61.00;;;;;;5114971;28;20410;-69
2023/06/23 11:28:26;;;;;;;1.65;0.90;;;27.50;61.80;;;;;;5114383;28;20028;-69
2023/06/23 11:31:10;;;;;;;2.00;0.77;;;27.50;62.20;;;;;;5114376;28;20387;-69
2023/06/23 11:33:40;;;;;;;3.15;0.68;;;27.60;61.70;;;;;;5115028;28;20032;-69
2023/06/23 11:36:09;;;;;;;2.80;0.70;;;27.60;61.20;;;;;;5114564;28;20103;-70
2023/06/23 11:38:36;;;;;;;4.43;0.82;;;27.50;60.90;;;;;;5114660;28;20039;-68
2023/06/23 11:41:02;;;;;;;2.25;0.60;;;27.40;61.30;;;;;;5114154;28;20055;-69
2023/06/23 11:43:38;;;;;;;1.38;0.73;;;27.30;61.40;;;;;;5114642;28;20106;-69
2023/06/23 11:46:13;;;;;;;4.80;0.98;;;27.20;61.50;;;;;;5114352;28;20044;-69
2023/06/23 11:48:40;;;;;;;5.38;0.75;;;27.10;59.80;;;;;;5114571;28;20028;-69
2023/06/23 11:51:08;;;;;;;2.30;0.60;;;27.00;59.70;;;;;;5114330;28;20053;-69
2023/06/23 11:53:34;;;;;;;1.95;0.88;;;26.90;61.20;;;;;;5114034;28;20533;-69
2023/06/23 11:56:00;;;;;;;3.25;0.73;;;26.70;61.60;;;;;;5113912;28;20038;-69
2023/06/23 11:58:33;;;;;;;1.52;0.55;;;26.50;61.70;;;;;;5113932;28;20069;-68
2023/06/23 12:01:00;;;;;;;3.67;1.02;;;26.30;62.50;;;;;;5113575;28;20076;-68
2023/06/23 12:03:26;;;;;;;2.45;0.60;;;26.10;63.20;;;;;;5114246;28;20110;-68
2023/06/23 12:05:52;;;;;;;1.35;0.70;;;26.10;63.80;;;;;;5127632;27;20106;-68
2023/06/23 12:08:18;;;;;;;4.03;0.90;;;26.10;64.00;;;;;;5134591;27;20039;-69
2023/06/23 12:10:46;;;;;;;3.22;0.80;;;25.90;64.60;;;;;;5134666;27;20083;-69
2023/06/23 12:13:13;;;;;;;2.95;1.00;;;25.80;65.00;;;;;;5134531;27;20027;-69
2023/06/23 12:15:43;;;;;;;4.88;0.85;;;25.80;65.40;;;;;;5118968;27;20023;-69
2023/06/23 12:18:09;;;;;;;7.00;0.95;;;25.70;65.80;;;;;;5113723;28;20027;-69
2023/06/23 12:20:36;;;;;;;2.17;0.90;;;25.60;66.10;;;;;;5113939;28;20068;-69
2023/06/23 12:23:06;;;;;;;1.80;0.95;;;25.50;66.20;;;;;;5113575;28;20032;-69
2023/06/23 12:25:39;;;;;;;5.05;1.42;;;25.50;66.00;;;;;;5095951;28;20456;-69
2023/06/23 12:28:05;;;;;;;3.05;1.08;;;25.40;67.00;;;;;;5113658;28;20119;-69
2023/06/23 12:30:43;;;;;;;2.88;1.00;;;25.30;67.00;;;;;;5113863;28;20027;-69
2023/06/23 12:33:23;;;;;;;5.53;1.27;;;25.20;65.50;;;;;;5113236;28;20024;-69
2023/06/23 12:36:03;;;;;;;2.83;1.50;;;25.10;65.20;;;;;;5113731;28;20098;-69
2023/06/23 12:38:34;;;;;;;8.33;1.57;;;24.90;65.90;;;;;;5113740;28;20032;-68
2023/06/23 12:41:17;;;;;;;3.67;1.30;;;24.80;66.50;;;;;;5112678;28;20058;-76
2023/06/23 12:43:43;;;;;;;2.70;1.25;;;24.70;67.80;;;;;;5132603;27;20031;-69
2023/06/23 12:46:11;;;;;;;3.15;1.63;;;24.60;69.00;;;;;;5133653;27;20047;-69
2023/06/23 12:48:38;;;;;;;4.95;1.40;;;24.50;69.20;;;;;;5134087;27;20448;-69
2023/06/23 12:51:05;;;;;;;8.10;1.60;;;24.40;68.90;;;;;;5133483;27;20540;-69
2023/06/23 12:53:31;;;;;;;4.07;1.45;;;24.40;70.00;;;;;;5134022;27;20109;-69
2023/06/23 12:55:57;;;;;;;3.85;1.77;;;24.30;71.50;;;;;;5133887;27;20428;-68
2023/06/23 12:58:22;;;;;;;2.90;1.83;;;24.10;72.80;;;;;;5133184;27;20098;-70
2023/06/23 13:00:48;;;;;;;5.70;2.15;;;23.90;75.60;;;;;;5133804;27;20459;-70
2023/06/23 13:03:14;;;;;;;2.40;1.58;;;23.80;76.40;;;;;;5133432;27;20464;-70
2023/06/23 13:05:41;;;;;;;3.95;1.80;;;23.70;79.10;;;;;;5133845;27;20034;-70
2023/06/23 13:08:07;;;;;;;3.70;1.83;;;23.60;78.90;;;;;;5114949;27;20076;-69
2023/06/23 13:10:33;;;;;;;3.10;2.05;;;23.60;78.00;;;;;;5133723;27;20431;-69
2023/06/23 13:12:58;;;;;;;3.45;2.15;;;23.40;79.60;;;;;;5133368;27;20023;-70
2023/06/23 13:15:25;;;;;;;3.42;2.00;;;23.30;81.30;;;;;;5133228;27;20058;-69
2023/06/23 13:17:50;;;;;;;5.20;2.10;;;23.30;82.60;;;;;;5133490;27;20031;-69
2023/06/23 13:20:16;;;;;;;3.65;2.15;;;23.20;83.20;;;;;;5133080;27;20030;-69
2023/06/23 13:22:41;;;;;;;3.97;2.05;;;23.10;83.80;;;;;;5133565;27;20570;-69
2023/06/23 13:25:08;;;;;;;8.18;2.55;;;23.00;83.20;;;;;;5133415;28;20467;-69
2023/06/23 13:27:34;;;;;;;2.95;2.22;;;22.80;85.40;;;;;;5133381;28;20110;-69
2023/06/23 13:29:59;;;;;;;3.65;2.40;;;22.70;86.20;;;;;;5133522;28;20062;-69
2023/06/23 13:32:25;;;;;;;2.75;2.47;;;22.70;86.20;;;;;;5132961;28;20031;-69